createdAt,value
2023-03-06T00:01:08.551Z,13.57
2023-03-06T00:04:10.724Z,12.52
2023-03-06T00:07:12.929Z,11.43
2023-03-06T00:10:26.174Z,9.65
2023-03-06T00:13:30.276Z,10.95
2023-03-06T00:16:32.401Z,9.68
2023-03-06T00:19:34.912Z,7.45
2023-03-06T00:22:37.114Z,7.40
2023-03-06T00:25:43.126Z,8.10
2023-03-06T00:28:45.221Z,7.93
2023-03-06T00:31:48.100Z,8.90
2023-03-06T00:34:53.518Z,7.95
2023-03-06T00:37:55.651Z,7.22
2023-03-06T00:40:57.692Z,7.85
2023-03-06T00:43:59.828Z,7.43
2023-03-06T00:47:02.642Z,7.68
2023-03-06T00:50:06.482Z,7.75
2023-03-06T00:53:08.617Z,7.30
2023-03-06T00:56:10.777Z,8.45
2023-03-06T00:59:12.679Z,8.90
2023-03-06T01:02:14.839Z,7.93
2023-03-06T01:05:16.976Z,8.45
2023-03-06T01:08:18.926Z,7.30
2023-03-06T01:11:21.097Z,7.63
2023-03-06T01:14:23.401Z,6.70
2023-03-06T01:17:25.507Z,6.93
2023-03-06T01:20:28.244Z,6.45
2023-03-06T01:23:30.401Z,5.78
2023-03-06T01:26:33.624Z,5.85
2023-03-06T01:29:35.633Z,5.35
2023-03-06T01:32:37.861Z,6.72
2023-03-06T01:35:39.977Z,5.82
2023-03-06T01:38:42.026Z,6.70
2023-03-06T01:41:44.146Z,5.95
2023-03-06T01:45:24.624Z,6.30
2023-03-06T01:48:26.693Z,4.72
2023-03-06T01:51:37.329Z,6.22
2023-03-06T01:55:05.541Z,5.35
2023-03-06T01:58:12.322Z,5.22
2023-03-06T02:01:15.028Z,5.40
2023-03-06T02:04:18.196Z,4.70
2023-03-06T02:07:21.507Z,4.53
2023-03-06T02:10:24.328Z,4.82
2023-03-06T02:13:27.475Z,6.70
2023-03-06T02:16:32.003Z,5.30
2023-03-06T02:19:43.121Z,6.00
2023-03-06T02:23:07.157Z,5.50
2023-03-06T02:26:10.265Z,5.57
2023-03-06T02:29:12.523Z,4.90
2023-03-06T02:32:14.788Z,4.22
2023-03-06T02:35:23.031Z,5.32
2023-03-06T02:38:34.834Z,4.70
2023-03-06T02:41:36.988Z,5.55
2023-03-06T02:44:39.249Z,7.20
2023-03-06T02:47:41.297Z,5.63
2023-03-06T02:50:44.620Z,6.97
2023-03-06T02:53:46.756Z,5.90
2023-03-06T02:56:48.837Z,5.32
2023-03-06T02:59:51.000Z,4.93
2023-03-06T03:02:54.272Z,5.50
2023-03-06T03:05:56.355Z,5.85
2023-03-06T03:09:03.048Z,6.18
2023-03-06T03:12:07.673Z,6.43
2023-03-06T03:15:10.641Z,5.60
2023-03-06T03:18:13.285Z,5.25
2023-03-06T03:21:15.762Z,5.90
2023-03-06T03:24:19.091Z,7.00
2023-03-06T03:27:21.208Z,6.00
2023-03-06T03:30:23.533Z,5.50
2023-03-06T03:33:26.178Z,7.00
2023-03-06T03:36:28.855Z,7.57
2023-03-06T03:39:31.002Z,7.25
2023-03-06T03:42:33.222Z,7.80
2023-03-06T03:45:35.454Z,6.72
2023-03-06T03:48:38.279Z,7.03
2023-03-06T03:51:41.478Z,8.68
2023-03-06T03:54:43.804Z,7.75
2023-03-06T03:57:46.161Z,7.20
2023-03-06T04:00:49.256Z,7.35
2023-03-06T04:03:51.328Z,7.70
2023-03-06T04:06:53.724Z,6.95
2023-03-06T04:09:55.727Z,8.48
2023-03-06T04:12:58.051Z,8.63
2023-03-06T04:16:01.916Z,8.57
2023-03-06T04:19:06.484Z,8.55
2023-03-06T04:22:09.101Z,9.00
2023-03-06T04:25:14.030Z,8.07
2023-03-06T04:28:16.618Z,8.52
2023-03-06T04:31:19.045Z,9.35
2023-03-06T04:34:21.284Z,9.73
2023-03-06T04:37:26.178Z,7.80
2023-03-06T04:40:31.655Z,8.95
2023-03-06T04:43:34.954Z,8.93
2023-03-06T04:46:37.105Z,8.85
2023-03-06T04:49:39.122Z,8.73
2023-03-06T04:52:41.166Z,8.75
2023-03-06T04:55:43.202Z,9.13
2023-03-06T04:58:45.493Z,9.70
2023-03-06T05:01:47.940Z,8.82
2023-03-06T05:04:50.027Z,9.45
2023-03-06T05:07:52.799Z,9.38
2023-03-06T05:10:57.238Z,9.63
2023-03-06T05:13:59.350Z,10.02
2023-03-06T05:17:01.412Z,10.73
2023-03-06T05:20:06.329Z,9.55
2023-03-06T05:23:08.487Z,10.98
2023-03-06T05:26:12.677Z,11.60
2023-03-06T05:29:14.638Z,10.20
2023-03-06T05:32:17.223Z,11.93
2023-03-06T05:35:22.112Z,10.85
2023-03-06T05:38:24.383Z,10.75
2023-03-06T05:41:26.353Z,11.43
2023-03-06T05:44:36.111Z,13.18
2023-03-06T05:47:38.193Z,12.18
2023-03-06T05:50:40.433Z,12.73
2023-03-06T05:53:42.422Z,12.30
2023-03-06T05:56:44.458Z,12.48
2023-03-06T05:59:46.804Z,11.63
2023-03-06T06:02:49.074Z,11.60
2023-03-06T06:05:52.164Z,12.00
2023-03-06T06:08:54.261Z,10.52
2023-03-06T06:12:03.780Z,11.85
2023-03-06T06:15:06.901Z,12.68
2023-03-06T06:18:08.895Z,13.13
2023-03-06T06:21:13.379Z,12.63
2023-03-06T06:24:17.053Z,13.60
2023-03-06T06:27:19.060Z,13.70
2023-03-06T06:30:21.284Z,14.70
2023-03-06T06:33:23.926Z,14.45
2023-03-06T06:36:26.153Z,15.98
2023-03-06T06:39:29.108Z,13.73
2023-03-06T06:42:37.761Z,14.07
2023-03-06T06:45:44.203Z,15.40
2023-03-06T06:48:49.705Z,14.93
2023-03-06T06:51:51.889Z,13.45
2023-03-06T06:54:54.285Z,14.85
2023-03-06T06:57:56.609Z,15.05
2023-03-06T07:01:05.568Z,12.75
2023-03-06T07:04:07.716Z,13.00
2023-03-06T07:07:09.824Z,13.23
2023-03-06T07:10:14.957Z,12.27
2023-03-06T07:13:17.207Z,12.52
2023-03-06T07:16:20.385Z,9.32
2023-03-06T07:19:22.666Z,8.07
2023-03-06T07:22:24.753Z,11.60
2023-03-06T07:25:26.832Z,12.75
2023-03-06T07:28:28.990Z,13.35
2023-03-06T07:31:31.125Z,13.82
2023-03-06T07:34:33.334Z,13.40
2023-03-06T07:37:35.432Z,12.70
2023-03-06T07:40:39.017Z,13.00
2023-03-06T07:43:42.173Z,12.50
2023-03-06T07:46:44.154Z,11.75
2023-03-06T07:49:46.159Z,11.60
2023-03-06T07:52:50.311Z,10.73
2023-03-06T07:55:53.345Z,12.27
2023-03-06T07:58:57.044Z,11.65
2023-03-06T08:02:00.789Z,11.23
2023-03-06T08:05:03.064Z,9.77
2023-03-06T08:08:06.500Z,12.20
2023-03-06T08:11:09.811Z,10.82
2023-03-06T08:14:11.852Z,9.50
2023-03-06T08:17:14.040Z,9.52
2023-03-06T08:20:17.226Z,8.68
2023-03-06T08:23:19.115Z,14.65
2023-03-06T08:26:24.380Z,11.35
2023-03-06T08:29:27.203Z,9.00
2023-03-06T08:32:29.272Z,10.45
2023-03-06T08:35:31.415Z,8.93
2023-03-06T08:38:34.560Z,12.18
2023-03-06T08:41:37.299Z,10.18
2023-03-06T08:44:39.441Z,12.27
2023-03-06T08:47:41.544Z,9.45
2023-03-06T08:50:43.558Z,8.75
2023-03-06T08:53:46.510Z,9.65
2023-03-06T08:56:48.520Z,10.23
2023-03-06T08:59:50.545Z,7.72
2023-03-06T09:02:52.791Z,9.27
2023-03-06T09:05:54.900Z,9.70
2023-03-06T09:08:57.732Z,9.00
2023-03-06T09:11:59.714Z,8.57
2023-03-06T09:15:04.478Z,9.73
2023-03-06T09:18:06.808Z,10.98
2023-03-06T09:21:09.849Z,8.65
2023-03-06T09:24:12.082Z,9.50
2023-03-06T09:27:16.894Z,7.35
2023-03-06T09:30:19.263Z,7.72
2023-03-06T09:33:21.736Z,7.00
2023-03-06T09:36:24.126Z,6.45
2023-03-06T09:39:27.432Z,6.35
2023-03-06T09:42:29.654Z,5.50
2023-03-06T09:45:37.299Z,4.97
2023-03-06T09:49:10.572Z,5.00
2023-03-06T09:52:34.303Z,5.57
2023-03-06T09:55:38.891Z,4.88
2023-03-06T09:58:52.544Z,4.95
2023-03-06T10:02:16.274Z,4.70
2023-03-06T10:05:28.782Z,5.80
2023-03-06T10:08:42.961Z,4.93
2023-03-06T10:11:54.812Z,4.45
2023-03-06T10:15:17.116Z,4.70
2023-03-06T10:18:21.465Z,5.13
2023-03-06T10:21:44.887Z,4.68
2023-03-06T10:25:01.584Z,5.38
2023-03-06T10:28:16.538Z,4.90
2023-03-06T10:31:26.703Z,5.07
2023-03-06T10:34:39.317Z,5.70
2023-03-06T10:37:41.455Z,4.25
2023-03-06T10:40:56.911Z,5.22
2023-03-06T10:44:00.884Z,5.68
2023-03-06T10:47:30.150Z,4.43
2023-03-06T10:50:34.610Z,5.13
2023-03-06T10:53:36.694Z,5.03
2023-03-06T10:56:41.584Z,5.22
2023-03-06T11:00:02.001Z,4.95
2023-03-06T11:03:22.396Z,5.03
2023-03-06T11:06:36.002Z,4.55
2023-03-06T11:09:38.096Z,4.93
2023-03-06T11:12:42.527Z,4.45
2023-03-06T11:16:17.048Z,5.18
2023-03-06T11:19:28.942Z,5.30
2023-03-06T11:22:32.819Z,6.35
2023-03-06T11:25:41.882Z,6.03
2023-03-06T11:28:56.371Z,4.63
2023-03-06T11:32:24.825Z,5.38
2023-03-06T11:35:35.963Z,6.68
2023-03-06T11:38:49.212Z,5.45
2023-03-06T11:42:05.683Z,5.15
2023-03-06T11:45:19.199Z,5.70
2023-03-06T11:48:28.159Z,5.10
2023-03-06T11:51:35.327Z,4.32
2023-03-06T11:54:37.345Z,3.70
2023-03-06T11:58:04.058Z,4.60
2023-03-06T12:01:32.274Z,4.03
2023-03-06T12:04:43.048Z,4.13
2023-03-06T12:08:00.716Z,4.43
2023-03-06T12:11:24.567Z,3.78
2023-03-06T12:14:32.103Z,5.05
2023-03-06T12:18:09.397Z,3.92
2023-03-06T12:21:48.683Z,4.32
2023-03-06T12:25:28.512Z,4.70
2023-03-06T12:28:54.378Z,5.78
2023-03-06T12:32:17.884Z,4.05
2023-03-06T12:35:38.870Z,3.47
2023-03-06T12:39:01.714Z,3.78
2023-03-06T12:42:42.504Z,5.05
2023-03-06T12:45:45.484Z,4.05
2023-03-06T12:49:23.050Z,2.80
2023-03-06T12:52:34.398Z,5.10
2023-03-06T12:55:46.393Z,2.78
2023-03-06T12:58:54.345Z,4.07
2023-03-06T13:02:11.838Z,4.43
2023-03-06T13:05:26.121Z,4.45
2023-03-06T13:08:46.645Z,3.60
2023-03-06T13:12:23.514Z,4.00
2023-03-06T13:15:39.567Z,3.13
2023-03-06T13:18:41.994Z,3.88
2023-03-06T13:21:55.940Z,4.25
2023-03-06T13:25:19.635Z,3.53
2023-03-06T13:28:46.583Z,4.05
2023-03-06T13:31:58.200Z,3.83
2023-03-06T13:35:01.680Z,4.47
2023-03-06T13:38:06.174Z,3.35
2023-03-06T13:41:23.594Z,4.75
2023-03-06T13:44:25.638Z,3.47
2023-03-06T13:47:39.175Z,3.50
2023-03-06T13:50:51.727Z,3.10
2023-03-06T13:54:11.304Z,3.15
2023-03-06T13:57:23.815Z,3.60
2023-03-06T14:00:50.967Z,3.10
2023-03-06T14:04:14.736Z,3.15
2023-03-06T14:07:40.218Z,4.95
2023-03-06T14:10:44.059Z,9.63
2023-03-06T14:13:51.810Z,12.05
2023-03-06T14:16:54.355Z,5.03
2023-03-06T14:20:00.939Z,2.83
2023-03-06T14:23:21.424Z,4.43
2023-03-06T14:26:26.061Z,4.15
2023-03-06T14:29:30.693Z,4.97
2023-03-06T14:32:33.041Z,4.72
2023-03-06T14:35:35.213Z,3.90
2023-03-06T14:38:44.314Z,3.35
2023-03-06T14:41:46.460Z,3.70
2023-03-06T14:45:01.834Z,3.80
2023-03-06T14:48:07.374Z,3.55
2023-03-06T14:51:22.107Z,3.95
2023-03-06T14:54:39.573Z,3.80
2023-03-06T14:57:41.816Z,4.32
2023-03-06T15:00:46.558Z,4.45
2023-03-06T15:03:51.452Z,4.35
2023-03-06T15:06:55.408Z,3.83
2023-03-06T15:09:58.426Z,3.83
2023-03-06T15:13:09.219Z,3.33
2023-03-06T15:16:13.973Z,3.45
2023-03-06T15:19:21.920Z,3.90
2023-03-06T15:22:29.771Z,2.75
2023-03-06T15:28:39.663Z,5.47
2023-03-06T15:31:44.202Z,4.57
2023-03-06T15:34:47.157Z,4.53
2023-03-06T15:37:49.173Z,5.15
2023-03-06T15:40:56.573Z,5.07
2023-03-06T15:44:00.363Z,5.22
2023-03-06T15:47:08.767Z,5.35
2023-03-06T15:50:19.148Z,6.57
2023-03-06T15:53:21.325Z,5.45
2023-03-06T15:56:29.822Z,6.15
2023-03-06T15:59:36.626Z,6.25
2023-03-06T16:02:41.177Z,5.65
2023-03-06T16:05:43.302Z,5.47
2023-03-06T16:08:45.532Z,5.55
2023-03-06T16:11:47.572Z,6.60
2023-03-06T16:14:49.896Z,6.60
2023-03-06T16:17:51.856Z,4.25
2023-03-06T16:20:54.044Z,6.03
2023-03-06T16:23:56.185Z,9.10
2023-03-06T16:27:00.642Z,10.20
2023-03-06T16:30:03.830Z,10.88
2023-03-06T16:33:05.983Z,9.40
2023-03-06T16:36:17.554Z,11.70
2023-03-06T16:39:22.852Z,11.70
2023-03-06T16:42:25.159Z,12.18
2023-03-06T16:45:27.414Z,10.05
2023-03-06T16:48:29.583Z,12.57
2023-03-06T16:51:32.041Z,10.38
2023-03-06T16:54:34.284Z,12.40
2023-03-06T16:57:36.259Z,10.50
2023-03-06T17:00:38.365Z,11.07
2023-03-06T17:03:40.558Z,10.10
2023-03-06T17:06:43.289Z,13.73
2023-03-06T17:09:45.459Z,12.80
2023-03-06T17:12:47.455Z,12.93
2023-03-06T17:15:56.570Z,12.95
2023-03-06T17:19:00.098Z,11.13
2023-03-06T17:22:02.148Z,11.07
2023-03-06T17:25:06.996Z,13.27
2023-03-06T17:28:09.131Z,14.15
2023-03-06T17:31:23.019Z,14.52
2023-03-06T17:34:25.022Z,11.88
2023-03-06T17:37:27.310Z,14.73
2023-03-06T17:40:29.450Z,18.33
2023-03-06T17:43:34.279Z,18.27
2023-03-06T17:46:36.515Z,19.65
2023-03-06T17:49:38.667Z,22.17
2023-03-06T17:52:40.704Z,20.75
2023-03-06T17:55:42.765Z,24.05
2023-03-06T17:58:45.184Z,24.77
2023-03-06T18:01:47.376Z,25.58
2023-03-06T18:04:49.421Z,26.70
2023-03-06T18:07:51.425Z,26.35
2023-03-06T18:10:59.705Z,27.60
2023-03-06T18:14:03.215Z,24.70
2023-03-06T18:17:06.341Z,23.77
2023-03-06T18:20:09.410Z,26.88
2023-03-06T18:23:11.499Z,26.25
2023-03-06T18:26:25.325Z,26.40
2023-03-06T18:29:27.574Z,24.90
2023-03-06T18:32:29.821Z,26.52
2023-03-06T18:35:33.795Z,26.55
2023-03-06T18:38:37.050Z,25.83
2023-03-06T18:41:39.299Z,26.55
2023-03-06T18:44:41.631Z,27.42
2023-03-06T18:47:43.661Z,27.25
2023-03-06T18:50:45.742Z,25.42
2023-03-06T18:53:47.998Z,25.42
2023-03-06T18:56:49.953Z,26.15
2023-03-06T18:59:52.102Z,26.27
2023-03-06T19:02:54.093Z,26.17
2023-03-06T19:05:56.247Z,24.90
2023-03-06T19:09:02.417Z,26.48
2023-03-06T19:12:04.904Z,27.83
2023-03-06T19:15:07.429Z,25.65
2023-03-06T19:18:09.362Z,27.23
2023-03-06T19:21:20.142Z,27.60
2023-03-06T19:24:22.205Z,26.02
2023-03-06T19:27:24.290Z,28.98
2023-03-06T19:30:26.747Z,26.35
2023-03-06T19:33:28.715Z,28.23
2023-03-06T19:36:33.921Z,28.63
2023-03-06T19:39:36.052Z,25.88
2023-03-06T19:42:38.139Z,28.83
2023-03-06T19:45:44.271Z,29.48
2023-03-06T19:48:46.441Z,30.92
2023-03-06T19:51:48.490Z,32.05
2023-03-06T19:54:51.342Z,32.60
2023-03-06T19:57:54.025Z,32.13
2023-03-06T20:00:58.611Z,33.63
2023-03-06T20:04:00.737Z,33.50
2023-03-06T20:07:04.927Z,33.97
2023-03-06T20:10:08.204Z,32.08
2023-03-06T20:13:12.576Z,30.55
2023-03-06T20:16:17.076Z,30.17
2023-03-06T20:19:21.934Z,30.60
2023-03-06T20:22:24.016Z,30.55
2023-03-06T20:29:44.875Z,31.05
2023-03-06T20:32:46.899Z,30.65
2023-03-06T20:35:49.152Z,29.73
2023-03-06T20:38:51.461Z,29.83
2023-03-06T20:41:54.087Z,30.55
2023-03-06T20:44:56.194Z,30.40
2023-03-06T20:47:58.251Z,29.80
2023-03-06T20:51:26.149Z,27.38
2023-03-06T20:54:29.094Z,31.17
2023-03-06T20:57:34.587Z,30.15
2023-03-06T21:00:36.575Z,26.83
2023-03-06T21:03:39.799Z,29.42
2023-03-06T21:06:47.257Z,29.88
2023-03-06T21:09:49.916Z,29.92
2023-03-06T21:12:52.041Z,31.77
2023-03-06T21:15:54.480Z,31.17
2023-03-06T21:18:58.636Z,31.33
2023-03-06T21:22:00.637Z,29.92
2023-03-06T21:25:02.765Z,31.45
2023-03-06T21:28:05.358Z,31.00
2023-03-06T21:31:09.006Z,26.42
2023-03-06T21:34:11.798Z,24.27
2023-03-06T21:37:13.959Z,25.13
2023-03-06T21:40:16.236Z,24.55
2023-03-06T21:43:20.297Z,21.83
2023-03-06T21:46:27.693Z,22.52
2023-03-06T21:49:29.954Z,22.95
2023-03-06T21:52:32.078Z,21.88
2023-03-06T21:55:34.359Z,22.52
2023-03-06T21:58:38.071Z,22.40
2023-03-06T22:01:42.675Z,21.77
2023-03-06T22:04:44.963Z,21.58
2023-03-06T22:07:47.031Z,22.02
2023-03-06T22:10:49.291Z,22.20
2023-03-06T22:13:53.301Z,27.63
2023-03-06T22:16:56.851Z,30.02
2023-03-06T22:19:59.158Z,32.33
2023-03-06T22:23:01.249Z,33.42
2023-03-06T22:26:12.532Z,35.55
2023-03-06T22:29:14.647Z,34.92
2023-03-06T22:32:16.764Z,32.33
2023-03-06T22:35:18.864Z,33.80
2023-03-06T22:38:20.889Z,30.70
2023-03-06T22:41:26.376Z,31.27
2023-03-06T22:44:28.403Z,33.28
2023-03-06T22:47:30.391Z,32.63
2023-03-06T22:50:33.653Z,31.02
2023-03-06T22:53:36.372Z,34.85
2023-03-06T22:56:38.518Z,33.40
2023-03-06T22:59:40.696Z,31.70
2023-03-06T23:02:44.034Z,33.22
2023-03-06T23:05:46.007Z,28.67
2023-03-06T23:08:59.664Z,27.92
2023-03-06T23:12:01.954Z,28.52
2023-03-06T23:15:23.051Z,27.23
2023-03-06T23:18:43.835Z,28.35
2023-03-06T23:22:04.096Z,29.20
2023-03-06T23:25:24.655Z,29.50
2023-03-06T23:28:27.686Z,32.05
2023-03-06T23:31:31.082Z,30.27
2023-03-06T23:34:33.043Z,30.35
2023-03-06T23:37:35.242Z,30.23
2023-03-06T23:40:38.458Z,33.40
2023-03-06T23:43:40.529Z,35.42
2023-03-06T23:46:42.855Z,36.28
2023-03-06T23:49:44.971Z,38.38
2023-03-06T23:52:47.276Z,36.40
2023-03-06T23:55:50.483Z,33.20
2023-03-06T23:58:52.607Z,30.08
